Time;durP1;ratioP1;P1;durP2;ratioP2;P2;SDS_P1;SDS_P2;PMS_P1;PMS_P2;Temp;Humidity;BMP_temperature;BMP_pressure;BME280_temperature;BME280_humidity;BME280_pressure;Samples;Min_cycle;Max_cycle;Signal;HPM_P1;HPM_P2
2022/12/31 07:06:01;;;;;;;1.45;1.17;;;;;;;14.86;100.00;100167.94;5343750;27;20422;-74
2022/12/31 07:08:59;;;;;;;1.80;0.90;;;;;;;14.87;100.00;100166.78;5341129;27;20096;-74
2022/12/31 07:11:43;;;;;;;0.90;0.68;;;;;;;14.89;100.00;100167.25;5329797;27;20099;-73
2022/12/31 07:14:27;;;;;;;3.53;1.02;;;;;;;14.92;100.00;100161.00;5321672;28;20153;-73
2022/12/31 07:17:12;;;;;;;2.10;0.90;;;;;;;14.98;100.00;100183.97;5321553;28;20035;-73
2022/12/31 07:19:59;;;;;;;1.45;0.90;;;;;;;14.97;100.00;100182.34;5321067;28;20024;-74
2022/12/31 07:22:30;;;;;;;2.28;1.05;;;;;;;15.00;100.00;100190.03;5320690;28;20387;-73
2022/12/31 07:25:02;;;;;;;3.25;1.15;;;;;;;14.99;100.00;100185.63;5321232;28;20043;-73
2022/12/31 07:27:39;;;;;;;2.22;0.90;;;;;;;14.97;100.00;100173.97;5321708;28;20016;-74
2022/12/31 07:30:16;;;;;;;4.90;1.52;;;;;;;15.00;100.00;100178.88;5331258;28;20061;-73
2022/12/31 07:33:28;;;;;;;2.25;1.10;;;;;;;15.02;100.00;100175.75;5321362;27;20639;-73
2022/12/31 07:36:16;;;;;;;3.53;1.05;;;;;;;15.02;100.00;100198.91;5321199;28;20422;-74
2022/12/31 07:39:07;;;;;;;4.65;1.25;;;;;;;15.02;100.00;100182.16;5320762;28;20035;-75
2022/12/31 07:42:03;;;;;;;2.50;1.23;;;;;;;15.07;100.00;100184.75;5327007;27;20088;-73
2022/12/31 07:44:40;;;;;;;;;;;;;;;15.02;100.00;100182.16;5333565;28;20031;-73
2022/12/31 07:47:20;;;;;;;2.75;1.13;;;;;;;14.95;100.00;100193.00;5322529;28;19923;-73
2022/12/31 07:49:52;;;;;;;2.97;1.13;;;;;;;14.88;100.00;100195.50;5321442;28;20024;-73
2022/12/31 07:52:24;;;;;;;2.30;0.95;;;;;;;14.79;100.00;100184.38;5333292;28;20055;-73
2022/12/31 07:54:56;;;;;;;2.40;1.25;;;;;;;14.77;100.00;100189.47;5321216;28;20501;-70
2022/12/31 07:57:34;;;;;;;2.42;1.10;;;;;;;14.78;100.00;100188.34;5320991;28;20024;-69
2022/12/31 08:00:12;;;;;;;3.50;1.65;;;;;;;14.74;100.00;100181.78;5320583;28;20035;-71
2022/12/31 08:03:17;;;;;;;2.45;1.10;;;;;;;14.70;100.00;100200.31;5329705;28;20024;-74
2022/12/31 08:06:15;;;;;;;2.95;2.22;;;;;;;14.72;100.00;100217.56;5341892;27;20051;-72
2022/12/31 08:09:01;;;;;;;1.63;1.08;;;;;;;14.76;100.00;100211.00;5350611;28;20047;-75
2022/12/31 08:11:43;;;;;;;3.95;1.65;;;;;;;14.68;100.00;100228.59;5370545;27;20084;-77
2022/12/31 08:14:17;;;;;;;2.47;1.08;;;;;;;14.63;100.00;100253.06;5369590;27;20101;-75
2022/12/31 08:16:49;;;;;;;2.75;1.25;;;;;;;14.53;100.00;100248.66;5361179;27;20037;-77
2022/12/31 08:19:24;;;;;;;2.80;1.30;;;;;;;14.52;100.00;100260.91;5346318;27;20165;-74
2022/12/31 08:22:04;;;;;;;1.92;1.20;;;;;;;14.41;100.00;100257.66;5333929;27;20033;-75
2022/12/31 08:25:07;;;;;;;3.10;1.00;;;;;;;14.43;100.00;100276.84;5333085;28;20074;-74
2022/12/31 08:27:54;;;;;;;1.70;0.93;;;;;;;14.45;100.00;100266.19;5334271;27;20047;-74
2022/12/31 08:30:37;;;;;;;2.63;1.45;;;;;;;14.45;100.00;100283.75;5349982;27;20088;-73
2022/12/31 08:33:15;;;;;;;4.57;1.00;;;;;;;14.47;100.00;100287.03;5329025;27;20034;-71
2022/12/31 08:36:02;;;;;;;3.50;1.20;;;;;;;14.53;100.00;100304.44;5329255;27;20023;-73
2022/12/31 08:38:56;;;;;;;2.00;0.90;;;;;;;14.56;100.00;100312.16;5332753;27;20043;-72
2022/12/31 08:41:46;;;;;;;2.17;0.90;;;;;;;14.64;100.00;100310.50;5309183;28;20035;-72
2022/12/31 08:44:51;;;;;;;2.45;1.20;;;;;;;14.62;100.00;100329.53;5336995;27;20027;-72
2022/12/31 08:47:56;;;;;;;4.40;1.50;;;;;;;14.65;100.00;100329.72;5352259;27;20557;-72
2022/12/31 08:50:28;;;;;;;2.47;1.30;;;;;;;14.72;100.00;100341.19;5333462;28;20043;-72
2022/12/31 08:53:00;;;;;;;2.15;1.05;;;;;;;14.70;100.00;100331.50;5349184;27;20042;-73
2022/12/31 08:55:31;;;;;;;2.42;1.00;;;;;;;14.72;100.00;100345.94;5340239;27;20055;-74
2022/12/31 08:58:28;;;;;;;2.85;1.52;;;;;;;14.71;100.00;100356.31;5335753;28;20020;-72
2022/12/31 09:01:00;;;;;;;3.53;1.38;;;;;;;14.71;100.00;100361.88;5344567;27;20427;-70
2022/12/31 09:03:56;;;;;;;3.13;1.30;;;;;;;14.71;100.00;100372.22;5352006;27;20023;-73
2022/12/31 09:06:40;;;;;;;1.53;0.83;;;;;;;14.64;100.00;100367.13;5337358;27;20032;-70
2022/12/31 09:09:36;;;;;;;2.78;1.10;;;;;;;14.63;100.00;100389.81;5332994;28;20066;-72
2022/12/31 09:12:39;;;;;;;3.00;0.83;;;;;;;14.56;100.00;100376.34;5332595;27;20047;-72
2022/12/31 09:15:28;;;;;;;3.10;1.17;;;;;;;14.46;100.00;100396.16;5324402;27;20073;-74
2022/12/31 09:18:00;;;;;;;2.88;1.17;;;;;;;14.35;100.00;100392.88;5327825;28;20026;-72
2022/12/31 09:20:33;;;;;;;3.33;1.33;;;;;;;14.30;100.00;100416.16;5327402;28;20023;-73
2022/12/31 09:23:05;;;;;;;3.22;1.25;;;;;;;14.22;100.00;100410.56;5336551;27;20031;-73
2022/12/31 09:25:59;;;;;;;5.97;1.52;;;;;;;14.23;100.00;100415.00;5348199;27;20039;-75
2022/12/31 09:28:42;;;;;;;2.00;1.13;;;;;;;14.19;100.00;100423.19;5340583;27;20039;-75
2022/12/31 09:31:20;;;;;;;6.03;5.25;;;;;;;14.16;100.00;100415.44;5326340;28;20421;-76
2022/12/31 09:34:00;;;;;;;2.47;1.98;;;;;;;14.17;100.00;100413.50;5334122;27;20027;-75
2022/12/31 09:36:40;;;;;;;2.85;1.40;;;;;;;14.15;100.00;100424.97;5326758;28;20023;-74
2022/12/31 09:39:25;;;;;;;2.75;1.63;;;;;;;14.11;100.00;100437.91;5325800;28;20099;-76
2022/12/31 09:42:27;;;;;;;4.15;2.17;;;;;;;14.11;100.00;100423.97;5327621;28;20031;-76
2022/12/31 09:45:29;;;;;;;4.05;1.80;;;;;;;14.17;100.00;100427.44;5323814;28;20040;-75
2022/12/31 09:48:32;;;;;;;4.60;1.95;;;;;;;14.16;100.00;100440.56;5319399;28;20050;-75
2022/12/31 09:51:15;;;;;;;4.40;1.20;;;;;;;14.24;100.00;100436.13;5325555;28;20084;-75
2022/12/31 09:54:14;;;;;;;1.92;1.20;;;;;;;14.33;100.00;100429.44;5325654;28;20031;-76
2022/12/31 09:57:20;;;;;;;6.68;3.13;;;;;;;14.40;100.00;100431.75;5326779;28;20398;-76
2022/12/31 10:00:02;;;;;;;5.07;1.90;;;;;;;14.43;100.00;100424.72;5324537;28;20050;-76
2022/12/31 10:02:36;;;;;;;2.85;1.17;;;;;;;14.51;100.00;100432.25;5326116;28;20098;-76
2022/12/31 10:05:41;;;;;;;4.43;1.38;;;;;;;14.57;100.00;100428.19;5326301;28;20459;-74
2022/12/31 10:08:31;;;;;;;3.80;2.35;;;;;;;14.59;100.00;100427.88;5309753;28;20115;-75
2022/12/31 10:11:25;;;;;;;3.75;1.40;;;;;;;14.66;100.00;100436.59;5305251;28;20024;-74
2022/12/31 10:14:29;;;;;;;2.85;1.65;;;;;;;14.67;100.00;100450.19;5304731;28;20103;-74
2022/12/31 10:17:15;;;;;;;2.97;1.15;;;;;;;14.67;100.00;100446.59;5319364;28;20545;-73
2022/12/31 10:19:51;;;;;;;2.58;1.60;;;;;;;14.68;100.00;100439.88;5325692;28;20031;-75
2022/12/31 10:22:44;;;;;;;4.22;1.17;;;;;;;14.75;100.00;100441.03;5324863;28;20455;-74
2022/12/31 10:25:53;;;;;;;4.28;1.40;;;;;;;14.65;100.00;100438.56;5325241;28;20074;-73
2022/12/31 10:29:08;;;;;;;3.25;1.73;;;;;;;14.67;100.00;100439.03;5326207;28;20073;-71
2022/12/31 10:31:50;;;;;;;5.85;3.88;;;;;;;14.67;100.00;100418.69;5326443;28;20023;-73
2022/12/31 10:35:26;;;;;;;4.47;1.73;;;;;;;14.66;100.00;100412.28;5325123;28;20038;-74
2022/12/31 10:38:29;;;;;;;29.45;26.27;;;;;;;14.72;100.00;100407.34;5239160;28;20036;-74
2022/12/31 10:41:13;;;;;;;5.93;2.28;;;;;;;14.70;100.00;100409.66;5237311;28;20091;-83
2022/12/31 10:44:03;;;;;;;2.50;1.45;;;;;;;14.71;100.00;100431.66;5307246;28;20042;-76
2022/12/31 10:46:55;;;;;;;4.07;1.65;;;;;;;14.86;100.00;100432.34;5324018;28;20032;-73
2022/12/31 10:50:03;;;;;;;4.15;1.50;;;;;;;14.93;100.00;100424.25;5325269;28;20024;-72
2022/12/31 10:52:41;;;;;;;3.28;2.15;;;;;;;14.95;100.00;100428.38;5324185;28;20051;-71
2022/12/31 10:55:44;;;;;;;6.22;1.90;;;;;;;15.06;100.00;100439.19;5323770;28;20035;-73
2022/12/31 10:58:30;;;;;;;4.18;2.20;;;;;;;15.07;100.00;100430.50;5325261;28;20416;-75
2022/12/31 11:01:20;;;;;;;3.38;1.63;;;;;;;15.11;100.00;100437.09;5324374;28;20034;-73
2022/12/31 11:03:55;;;;;;;5.95;2.00;;;;;;;15.10;100.00;100442.97;5324916;28;20471;-71
2022/12/31 11:06:47;;;;;;;5.45;1.65;;;;;;;15.13;100.00;100445.94;5324492;28;20027;-73
2022/12/31 11:09:39;;;;;;;5.32;1.60;;;;;;;15.12;100.00;100443.47;5324369;28;20085;-71
2022/12/31 11:12:41;;;;;;;3.72;1.40;;;;;;;15.12;100.00;100449.88;5325003;28;20027;-74
2022/12/31 11:15:21;;;;;;;4.20;1.80;;;;;;;15.14;100.00;100455.97;5323695;28;20055;-75
2022/12/31 11:18:19;;;;;;;6.03;1.55;;;;;;;15.16;100.00;100442.50;5324805;28;20436;-74
2022/12/31 11:21:08;;;;;;;3.60;2.22;;;;;;;15.18;100.00;100465.31;5324338;28;20034;-76
2022/12/31 11:24:31;;;;;;;3.08;1.70;;;;;;;15.25;100.00;100459.25;5324447;28;20107;-74
2022/12/31 11:27:37;;;;;;;3.85;1.70;;;;;;;15.36;100.00;100459.72;5289421;28;20054;-73
2022/12/31 11:30:52;;;;;;;5.90;2.63;;;;;;;15.35;100.00;100446.91;5323359;28;20039;-71
2022/12/31 11:33:48;;;;;;;9.07;2.22;;;;;;;15.32;100.00;100469.91;5324077;28;20031;-70
2022/12/31 11:36:57;;;;;;;5.85;1.83;;;;;;;15.27;100.00;100450.53;5323202;28;20073;-70
2022/12/31 11:39:40;;;;;;;3.45;1.45;;;;;;;15.37;100.00;100453.78;5324844;28;20039;-71
2022/12/31 11:42:26;;;;;;;6.05;1.88;;;;;;;15.33;100.00;100457.59;5323940;28;20024;-73
2022/12/31 11:45:17;;;;;;;4.88;2.05;;;;;;;15.38;100.00;100460.19;5326513;27;20497;-77
2022/12/31 11:48:03;;;;;;;8.65;4.70;;;;;;;15.31;100.00;100457.09;5306901;28;20030;-76
2022/12/31 11:51:00;;;;;;;5.95;1.92;;;;;;;15.29;100.00;100456.59;5323030;28;20023;-75
2022/12/31 11:54:14;;;;;;;4.40;2.40;;;;;;;15.20;100.00;100457.44;5325698;28;20092;-74
2022/12/31 11:57:01;;;;;;;6.63;4.03;;;;;;;15.17;100.00;100452.50;5327135;28;20058;-71
2022/12/31 11:59:32;;;;;;;14.50;12.20;;;;;;;15.14;100.00;100458.75;5326923;28;20031;-72
2022/12/31 12:02:19;;;;;;;4.13;2.58;;;;;;;15.15;100.00;100454.81;5326114;28;20028;-72
2022/12/31 12:04:52;;;;;;;3.55;1.92;;;;;;;15.25;100.00;100459.25;5326067;28;20051;-70
2022/12/31 12:07:24;;;;;;;6.05;1.92;;;;;;;15.25;100.00;100453.66;5327026;28;20026;-71
2022/12/31 12:09:57;;;;;;;6.47;2.72;;;;;;;15.24;100.00;100468.78;5328405;28;20045;-70
2022/12/31 12:12:39;;;;;;;3.50;1.60;;;;;;;15.20;100.00;100460.22;5322029;28;20043;-73
2022/12/31 12:15:17;;;;;;;3.58;1.48;;;;;;;15.18;100.00;100454.13;5324692;28;20031;-71
2022/12/31 12:17:52;;;;;;;4.72;2.17;;;;;;;15.19;100.00;100452.19;5321004;28;20028;-73
2022/12/31 12:20:30;;;;;;;3.25;1.55;;;;;;;15.25;100.00;100464.00;5320848;28;20070;-73
2022/12/31 12:23:13;;;;;;;6.63;2.03;;;;;;;15.17;100.00;100458.09;5325539;28;20123;-73
2022/12/31 12:25:46;;;;;;;3.60;1.80;;;;;;;15.17;100.00;100460.88;5324370;28;20080;-74
2022/12/31 12:28:18;;;;;;;4.95;1.70;;;;;;;15.04;100.00;100459.09;5326461;28;20031;-73
2022/12/31 12:31:01;;;;;;;5.22;1.88;;;;;;;15.10;100.00;100463.34;5327051;28;20474;-73
2022/12/31 12:33:42;;;;;;;4.68;1.55;;;;;;;15.07;100.00;100452.03;5325605;28;20038;-73
2022/12/31 12:36:16;;;;;;;5.32;1.77;;;;;;;15.08;100.00;100454.47;5327302;28;20070;-72
2022/12/31 12:38:58;;;;;;;4.38;1.52;;;;;;;15.06;100.00;100440.03;5327077;28;20032;-74
2022/12/31 12:41:30;;;;;;;4.43;1.73;;;;;;;15.05;100.00;100427.22;5327313;28;20055;-74
2022/12/31 12:44:06;;;;;;;3.45;2.35;;;;;;;15.04;100.00;100438.72;5326331;28;20027;-72
2022/12/31 12:46:42;;;;;;;;;;;;;;;15.08;100.00;100437.72;5326550;27;20092;-73
2022/12/31 12:49:24;;;;;;;31.75;27.48;;;;;;;15.04;100.00;100425.59;5303255;28;19912;-72
2022/12/31 12:52:26;;;;;;;9.00;7.68;;;;;;;15.12;100.00;100438.72;5305622;28;20024;-70
2022/12/31 12:55:30;;;;;;;7.63;2.72;;;;;;;15.17;100.00;100432.97;5323552;28;20036;-73
2022/12/31 12:58:40;;;;;;;5.88;2.38;;;;;;;15.16;100.00;100433.28;5324722;28;20024;-72
2022/12/31 13:01:46;;;;;;;5.35;2.17;;;;;;;15.19;100.00;100433.44;5324140;28;20027;-73
2022/12/31 13:04:54;;;;;;;4.47;1.98;;;;;;;15.22;100.00;100438.38;5326699;28;20384;-72
2022/12/31 13:07:34;;;;;;;5.95;1.90;;;;;;;15.27;100.00;100440.19;5325219;28;20069;-72
2022/12/31 13:10:14;;;;;;;3.15;1.60;;;;;;;15.37;100.00;100445.41;5319681;28;20039;-72
2022/12/31 13:12:49;;;;;;;4.63;1.90;;;;;;;15.34;100.00;100439.66;5324309;28;20116;-72
2022/12/31 13:15:44;;;;;;;5.05;1.85;;;;;;;15.36;99.73;100445.72;5324765;28;20027;-74
2022/12/31 13:18:31;;;;;;;3.83;1.97;;;;;;;15.36;99.68;100452.13;5307596;28;20118;-73
2022/12/31 13:21:29;;;;;;;5.82;1.95;;;;;;;15.41;99.64;100445.56;5326868;28;20027;-73
2022/12/31 13:24:29;;;;;;;4.50;1.83;;;;;;;15.41;98.99;100443.59;5321752;28;20115;-73
2022/12/31 13:27:08;;;;;;;4.22;1.65;;;;;;;15.40;97.53;100446.72;5324014;28;20024;-78
2022/12/31 13:29:43;;;;;;;2.92;1.98;;;;;;;15.35;96.46;100444.91;5325521;28;20378;-70
2022/12/31 13:32:20;;;;;;;3.95;2.10;;;;;;;15.44;95.13;100436.50;5326284;28;20031;-72
2022/12/31 13:34:57;;;;;;;5.68;1.83;;;;;;;15.39;95.34;100437.53;5326382;28;20024;-73
2022/12/31 13:37:39;;;;;;;6.60;2.75;;;;;;;15.45;94.93;100435.38;5325178;28;20050;-74
2022/12/31 13:40:25;;;;;;;4.07;2.20;;;;;;;15.45;93.07;100446.56;5326377;28;20478;-73
2022/12/31 13:43:03;;;;;;;5.45;2.10;;;;;;;15.49;91.82;100446.69;5324973;28;20463;-73
2022/12/31 13:45:40;;;;;;;4.32;2.50;;;;;;;15.42;92.18;100442.44;5325630;28;20200;-73
2022/12/31 13:48:21;;;;;;;5.88;2.50;;;;;;;15.53;90.62;100454.09;5325852;28;20474;-74
2022/12/31 13:51:02;;;;;;;6.63;2.53;;;;;;;15.50;91.01;100443.59;5325323;28;20031;-76
2022/12/31 13:54:05;;;;;;;6.80;2.20;;;;;;;15.57;90.82;100432.72;5325922;28;20100;-76
2022/12/31 13:56:42;;;;;;;5.63;2.13;;;;;;;15.55;89.13;100428.63;5303574;28;20040;-76
2022/12/31 13:59:20;;;;;;;6.40;2.90;;;;;;;15.58;88.34;100422.34;5334265;27;20023;-75
2022/12/31 14:01:57;;;;;;;10.27;3.78;;;;;;;15.53;88.09;100440.13;5322507;28;20032;-75
2022/12/31 14:04:39;;;;;;;7.18;2.60;;;;;;;15.47;89.35;100449.84;5333247;27;20039;-74
2022/12/31 14:07:16;;;;;;;9.25;3.03;;;;;;;15.42;89.50;100441.63;5325693;28;20035;-78
2022/12/31 14:09:47;;;;;;;5.78;2.85;;;;;;;15.45;89.41;100452.13;5336204;27;20042;-75
2022/12/31 14:12:31;;;;;;;6.88;2.42;;;;;;;15.50;89.39;100459.53;5325364;27;20028;-75
2022/12/31 14:15:27;;;;;;;7.60;2.45;;;;;;;15.50;90.12;100449.16;5307560;28;20055;-81
2022/12/31 14:18:20;;;;;;;8.95;3.08;;;;;;;15.45;90.20;100449.34;5322911;28;20035;-76
2022/12/31 14:21:19;;;;;;;6.68;2.67;;;;;;;15.46;89.72;100438.97;5308914;28;20399;-74
2022/12/31 14:24:32;;;;;;;6.57;2.47;;;;;;;15.49;90.30;100441.91;5319865;27;20065;-76
2022/12/31 14:27:09;;;;;;;5.75;2.75;;;;;;;15.38;89.86;100441.47;5320349;27;20044;-75
2022/12/31 14:29:50;;;;;;;7.18;2.50;;;;;;;15.37;89.81;100453.78;5323684;28;20068;-74
2022/12/31 14:32:41;;;;;;;8.52;3.60;;;;;;;15.40;90.50;100464.31;5322086;28;20031;-74
2022/12/31 14:35:31;;;;;;;8.13;3.33;;;;;;;15.35;90.13;100458.06;5322175;28;20038;-74
2022/12/31 14:38:56;;;;;;;5.82;2.55;;;;;;;15.36;90.17;100462.50;5323569;28;20442;-76
2022/12/31 14:41:45;;;;;;;5.63;2.92;;;;;;;15.33;90.40;100469.56;5229797;28;20034;-75
2022/12/31 14:44:51;;;;;;;7.55;2.40;;;;;;;15.32;90.89;100467.13;5228341;28;20099;-78
2022/12/31 14:47:55;;;;;;;6.07;2.33;;;;;;;15.27;90.90;100478.47;5236882;28;20131;-80
2022/12/31 14:50:28;;;;;;;6.30;2.67;;;;;;;15.38;89.25;100463.00;5321706;28;20161;-75
2022/12/31 14:53:02;;;;;;;7.25;3.08;;;;;;;15.30;89.24;100469.44;5319824;28;20024;-74
2022/12/31 14:55:39;;;;;;;8.30;2.38;;;;;;;15.30;89.15;100463.84;5314578;28;20095;-73
2022/12/31 14:58:30;;;;;;;6.40;2.40;;;;;;;15.35;88.34;100463.66;5313390;28;20024;-73
2022/12/31 15:01:08;;;;;;;4.82;2.80;;;;;;;15.34;88.31;100487.16;5320604;28;20031;-73
2022/12/31 15:03:41;;;;;;;7.55;3.08;;;;;;;15.32;88.76;100487.50;5320795;28;20043;-76
2022/12/31 15:06:21;;;;;;;4.75;2.40;;;;;;;15.38;88.43;100486.16;5323639;28;20474;-76
2022/12/31 15:09:11;;;;;;;6.15;2.33;;;;;;;15.34;88.48;100479.63;5322812;28;20019;-78
2022/12/31 15:11:57;;;;;;;6.20;2.10;;;;;;;15.44;86.79;100473.69;5314049;28;20036;-78
2022/12/31 15:14:34;;;;;;;7.80;2.58;;;;;;;15.40;86.96;100471.88;5317167;28;20046;-73
2022/12/31 15:17:14;;;;;;;4.30;2.20;;;;;;;15.38;87.04;100469.41;5322104;28;20028;-75
2022/12/31 15:20:07;;;;;;;7.60;3.15;;;;;;;15.38;87.70;100469.41;5323862;28;20106;-72
2022/12/31 15:22:43;;;;;;;7.30;2.10;;;;;;;15.33;87.61;100472.38;5322690;28;20039;-76
2022/12/31 15:25:38;;;;;;;11.27;2.75;;;;;;;15.46;87.18;100467.75;5323051;28;20054;-75
2022/12/31 15:28:33;;;;;;;6.78;2.33;;;;;;;15.38;86.69;100461.03;5322636;28;20032;-73
2022/12/31 15:31:15;;;;;;;7.13;2.15;;;;;;;15.35;86.28;100475.66;5319525;28;20130;-74
2022/12/31 15:34:04;;;;;;;8.25;2.85;;;;;;;15.43;86.19;100460.03;5316850;28;20024;-74
2022/12/31 15:36:38;;;;;;;5.43;2.20;;;;;;;15.32;85.74;100475.50;5315512;28;20445;-74
2022/12/31 15:39:09;;;;;;;4.57;2.30;;;;;;;15.34;85.09;100468.44;5315755;28;20035;-73
2022/12/31 15:41:46;;;;;;;8.00;2.53;;;;;;;15.29;85.60;100464.97;5319474;28;20028;-75
2022/12/31 15:44:27;;;;;;;8.15;2.47;;;;;;;15.30;85.17;100472.22;5326522;28;20072;-76
2022/12/31 15:47:14;;;;;;;6.38;3.72;;;;;;;15.30;84.47;100458.25;5324473;28;20116;-70
2022/12/31 15:49:46;;;;;;;4.95;3.03;;;;;;;15.28;84.72;100469.75;5320393;28;20023;-73
2022/12/31 15:52:41;;;;;;;5.78;2.80;;;;;;;15.26;84.88;100469.25;5330388;27;20493;-73
2022/12/31 15:55:25;;;;;;;3.78;2.17;;;;;;;15.26;84.83;100476.81;5322292;27;20032;-72
2022/12/31 15:58:11;;;;;;;5.60;2.47;;;;;;;15.23;85.13;100484.69;5318275;28;20022;-73
2022/12/31 16:01:08;;;;;;;4.03;2.05;;;;;;;15.12;86.08;100472.22;5326304;28;20490;-70
2022/12/31 16:03:48;;;;;;;5.15;2.40;;;;;;;15.12;85.31;100463.84;5325419;28;20043;-70
2022/12/31 16:06:20;;;;;;;6.50;4.22;;;;;;;15.15;84.99;100460.38;5327906;28;20558;-71
2022/12/31 16:08:51;;;;;;;4.05;1.90;;;;;;;15.16;84.72;100464.84;5327328;28;20096;-73
2022/12/31 16:11:23;;;;;;;5.15;2.75;;;;;;;15.14;84.70;100464.34;5322450;28;20039;-78
2022/12/31 16:13:57;;;;;;;4.90;2.10;;;;;;;15.10;84.94;100473.72;5314281;28;20020;-75
2022/12/31 16:16:31;;;;;;;4.80;2.53;;;;;;;15.05;85.41;100466.31;5318720;28;20085;-75
2022/12/31 16:19:02;;;;;;;4.10;2.53;;;;;;;15.11;84.66;100448.25;5316786;28;20027;-75
2022/12/31 16:21:36;;;;;;;3.92;2.30;;;;;;;15.14;83.67;100457.94;5316446;28;20024;-76
2022/12/31 16:24:29;;;;;;;3.28;2.08;;;;;;;15.15;84.71;100454.00;5315717;28;20373;-70
2022/12/31 16:27:06;;;;;;;5.60;2.47;;;;;;;15.09;84.12;100442.16;5316753;28;20012;-68
2022/12/31 16:29:44;;;;;;;6.50;2.53;;;;;;;15.05;84.29;100443.97;5325453;28;20390;-75
2022/12/31 16:32:17;;;;;;;4.82;2.15;;;;;;;15.03;84.03;100457.44;5327013;28;20024;-76
2022/12/31 16:34:49;;;;;;;5.72;2.33;;;;;;;15.07;83.26;100452.84;5327635;28;20115;-75
